Time;durP1;ratioP1;P1;durP2;ratioP2;P2;SDS_P1;SDS_P2;PMS_P1;PMS_P2;Temp;Humidity;BMP_temperature;BMP_pressure;BME280_temperature;BME280_humidity;BME280_pressure;Samples;Min_cycle;Max_cycle;Signal;HPM_P1;HPM_P2
2023/05/17 00:01:38;;;;;;;4.37;1.10;;;;;;;6.45;74.63;101272.25;5007281;28;20683;-68
2023/05/17 00:04:05;;;;;;;2.20;1.27;;;;;;;6.38;74.91;101268.41;5014952;28;20204;-68
2023/05/17 00:06:33;;;;;;;2.90;1.20;;;;;;;6.30;75.61;101259.31;5010259;28;20197;-69
2023/05/17 00:09:01;;;;;;;2.77;1.10;;;;;;;6.21;75.80;101258.34;5015795;28;20231;-69
2023/05/17 00:11:28;;;;;;;3.37;1.00;;;;;;;6.16;76.82;101266.28;5022588;28;20247;-69
2023/05/17 00:13:54;;;;;;;3.20;0.90;;;;;;;6.09;77.04;101268.47;5030129;28;20192;-69
2023/05/17 00:16:20;;;;;;;1.93;0.90;;;;;;;6.03;77.45;101260.91;5021629;28;20204;-69
2023/05/17 00:18:47;;;;;;;4.57;1.17;;;;;;;5.93;76.15;101263.66;4994803;28;20204;-68
2023/05/17 00:21:13;;;;;;;2.67;1.10;;;;;;;5.86;76.68;101258.72;5003461;28;20193;-69
2023/05/17 00:23:39;;;;;;;2.83;1.20;;;;;;;5.81;77.06;101256.16;4993544;28;20223;-68
2023/05/17 00:26:07;;;;;;;3.23;1.10;;;;;;;5.73;76.63;101255.94;5010967;28;20196;-69
2023/05/17 00:28:34;;;;;;;2.40;1.17;;;;;;;5.68;77.19;101264.66;5032505;22;20239;-75
2023/05/17 00:31:00;;;;;;;2.63;1.07;;;;;;;5.66;78.37;101263.34;4994031;28;20309;-75
2023/05/17 00:33:26;;;;;;;1.60;1.10;;;;;;;5.62;79.04;101262.34;5009619;28;20908;-72
2023/05/17 00:35:53;;;;;;;2.40;1.10;;;;;;;5.57;78.98;101259.75;4979598;28;20290;-72
2023/05/17 00:38:20;;;;;;;2.00;1.10;;;;;;;5.52;79.36;101260.59;4993536;28;20204;-73
2023/05/17 00:40:49;;;;;;;4.50;1.10;;;;;;;5.45;78.55;101269.81;5011366;28;20651;-72
2023/05/17 00:43:16;;;;;;;3.03;1.00;;;;;;;5.39;78.38;101265.69;4990666;28;20213;-74
2023/05/17 00:45:44;;;;;;;4.17;1.10;;;;;;;5.33;78.60;101270.16;4995126;28;20231;-73
2023/05/17 00:48:11;;;;;;;3.47;1.03;;;;;;;5.31;79.09;101279.34;4993568;28;20346;-73
2023/05/17 00:50:38;;;;;;;4.47;1.00;;;;;;;5.26;79.46;101271.53;4994597;28;20271;-73
2023/05/17 00:53:04;;;;;;;4.47;1.20;;;;;;;5.25;80.59;101275.22;4994511;28;20204;-74
2023/05/17 00:55:31;;;;;;;3.27;1.20;;;;;;;5.20;80.47;101280.47;4988873;28;20227;-73
2023/05/17 00:57:58;;;;;;;3.00;1.30;;;;;;;5.16;80.59;101277.63;5011740;28;20662;-73
2023/05/17 01:00:25;;;;;;;1.67;0.97;;;;;;;5.14;80.95;101268.50;5009137;28;20209;-74
2023/05/17 01:02:52;;;;;;;4.70;1.47;;;;;;;5.12;81.05;101289.69;5010619;28;20204;-73
2023/05/17 01:05:18;;;;;;;2.33;1.13;;;;;;;5.05;80.71;101280.59;4995097;28;20285;-73
2023/05/17 01:07:45;;;;;;;3.00;1.10;;;;;;;5.01;81.04;101288.19;5008795;28;20313;-73
2023/05/17 01:10:12;;;;;;;4.33;1.33;;;;;;;4.97;80.69;101287.16;5009959;28;20212;-72
2023/05/17 01:12:50;;;;;;;2.33;1.20;;;;;;;4.98;81.15;101275.63;4993145;28;20202;-74
2023/05/17 01:15:23;;;;;;;2.00;1.27;;;;;;;4.94;81.56;101266.78;5011172;28;20230;-73
2023/05/17 01:18:05;;;;;;;3.70;1.47;;;;;;;4.97;81.93;101275.94;5015437;28;20191;-73
2023/05/17 01:20:36;;;;;;;3.60;1.40;;;;;;;4.97;82.64;101274.09;4994074;28;20214;-73
2023/05/17 01:23:35;;;;;;;3.27;1.20;;;;;;;4.99;83.04;101279.06;4995757;28;20445;-73
2023/05/17 01:26:07;;;;;;;6.07;1.50;;;;;;;4.98;83.04;101280.13;4998015;28;20228;-73
2023/05/17 01:28:38;;;;;;;2.27;1.33;;;;;;;4.99;83.16;101279.84;5010366;28;20239;-73
2023/05/17 01:31:05;;;;;;;4.30;1.63;;;;;;;4.98;83.10;101280.88;5037874;28;20573;-74
2023/05/17 01:33:32;;;;;;;4.40;1.43;;;;;;;4.96;82.96;101282.19;5034451;28;20199;-74
2023/05/17 01:35:58;;;;;;;4.43;1.50;;;;;;;4.97;83.23;101275.94;5001308;28;20597;-73
2023/05/17 01:38:25;;;;;;;11.37;2.40;;;;;;;4.91;81.12;101283.03;5018252;28;20288;-73
2023/05/17 01:40:56;;;;;;;3.20;1.60;;;;;;;4.92;80.36;101284.56;5000268;28;20208;-73
2023/05/17 01:43:31;;;;;;;5.77;1.90;;;;;;;4.90;79.00;101288.53;5019546;28;20714;-72
2023/05/17 01:46:07;;;;;;;5.40;1.83;;;;;;;4.94;79.79;101292.97;5012736;28;20215;-72
2023/05/17 01:48:39;;;;;;;2.90;1.57;;;;;;;4.93;79.18;101298.47;5012143;28;20637;-73
2023/05/17 01:51:09;;;;;;;2.03;1.73;;;;;;;4.97;79.69;101289.78;5011366;28;20693;-73
2023/05/17 01:53:38;;;;;;;3.00;2.13;;;;;;;4.99;80.16;101298.16;5004835;28;20215;-74
2023/05/17 01:56:09;;;;;;;5.70;1.70;;;;;;;5.02;80.68;101294.22;5036926;28;20996;-73
2023/05/17 01:58:44;;;;;;;2.37;1.40;;;;;;;5.06;81.36;101279.53;5036424;28;20276;-73
2023/05/17 02:01:14;;;;;;;5.27;1.70;;;;;;;5.10;82.12;101288.41;5014067;28;20211;-72
2023/05/17 02:03:42;;;;;;;2.30;1.57;;;;;;;5.09;82.09;101285.03;5028027;28;20196;-73
2023/05/17 02:06:08;;;;;;;3.93;1.80;;;;;;;5.12;82.48;101288.94;5015810;28;20255;-73
2023/05/17 02:08:35;;;;;;;3.33;1.47;;;;;;;5.12;82.53;101289.69;5005978;28;20223;-72
2023/05/17 02:11:01;;;;;;;6.50;2.07;;;;;;;5.14;82.97;101284.97;5033039;28;20214;-73
2023/05/17 02:13:30;;;;;;;3.97;1.43;;;;;;;5.14;83.11;101289.44;4998629;28;20230;-73
2023/05/17 02:16:00;;;;;;;4.10;1.70;;;;;;;5.13;82.99;101290.50;5002240;28;20251;-75
2023/05/17 02:18:28;;;;;;;4.37;1.70;;;;;;;5.15;83.69;101289.16;5010123;28;20216;-72
2023/05/17 02:20:54;;;;;;;3.33;1.60;;;;;;;5.12;83.65;101292.31;5020787;28;20223;-73
2023/05/17 02:23:21;;;;;;;6.57;1.60;;;;;;;5.09;82.98;101297.31;5001824;28;20200;-74
2023/05/17 02:25:47;;;;;;;5.57;1.70;;;;;;;5.06;82.63;101290.78;5012461;28;20219;-73
2023/05/17 02:28:14;;;;;;;3.50;2.00;;;;;;;5.01;82.52;101288.19;5017726;28;20727;-73
2023/05/17 02:30:40;;;;;;;2.67;1.13;;;;;;;4.98;82.28;101287.97;5026719;28;20584;-72
2023/05/17 02:33:07;;;;;;;4.77;1.93;;;;;;;4.94;82.53;101294.78;5028381;28;20604;-73
2023/05/17 02:35:35;;;;;;;4.67;1.77;;;;;;;4.97;83.24;101296.88;5011541;28;20286;-73
2023/05/17 02:38:01;;;;;;;6.43;1.73;;;;;;;4.94;83.78;101302.63;5031728;28;20290;-72
2023/05/17 02:40:28;;;;;;;3.63;1.70;;;;;;;4.91;83.61;101296.09;4997805;28;20215;-73
2023/05/17 02:42:54;;;;;;;4.17;1.80;;;;;;;4.93;84.40;101303.69;5004899;28;20281;-73
2023/05/17 02:45:21;;;;;;;5.67;1.70;;;;;;;4.91;84.43;101314.44;5021131;28;20297;-72
2023/05/17 02:47:47;;;;;;;4.13;1.80;;;;;;;4.89;84.57;101306.06;5013011;28;20228;-73
2023/05/17 02:50:13;;;;;;;4.97;1.67;;;;;;;4.86;84.42;101306.59;5025682;28;20684;-72
2023/05/17 02:52:42;;;;;;;2.50;1.70;;;;;;;4.82;84.40;101308.19;5018242;28;20298;-73
2023/05/17 02:55:09;;;;;;;7.63;1.83;;;;;;;4.76;83.60;101304.03;5017714;28;20232;-72
2023/05/17 02:57:36;;;;;;;6.27;2.27;;;;;;;4.72;83.48;101315.31;5005002;28;20227;-74
2023/05/17 03:00:03;;;;;;;4.77;2.00;;;;;;;4.69;83.67;101319.25;5004648;28;20200;-72
2023/05/17 03:02:30;;;;;;;4.70;1.73;;;;;;;4.65;84.07;101326.06;5010934;28;20677;-74
2023/05/17 03:04:56;;;;;;;3.87;1.73;;;;;;;4.62;83.83;101333.66;5034846;28;20768;-73
2023/05/17 03:07:22;;;;;;;2.57;1.53;;;;;;;4.61;84.14;101340.72;5007497;28;20215;-73
2023/05/17 03:09:50;;;;;;;5.57;2.03;;;;;;;4.60;84.82;101344.38;5013077;28;20224;-74
2023/05/17 03:12:17;;;;;;;4.40;2.10;;;;;;;4.58;84.50;101350.94;5016123;28;20225;-73
2023/05/17 03:14:43;;;;;;;3.83;2.03;;;;;;;4.58;84.69;101349.09;5022379;28;20224;-73
2023/05/17 03:17:11;;;;;;;4.37;2.17;;;;;;;4.58;85.23;101354.34;5027958;28;20212;-73
2023/05/17 03:19:39;;;;;;;5.27;1.97;;;;;;;4.59;85.41;101362.94;5011258;28;20461;-72
2023/05/17 03:22:06;;;;;;;4.60;2.10;;;;;;;4.58;85.22;101371.84;5033237;28;20523;-72
2023/05/17 03:24:33;;;;;;;3.27;2.07;;;;;;;4.62;85.73;101378.13;5009472;28;20642;-72
2023/05/17 03:27:02;;;;;;;6.00;2.07;;;;;;;4.61;85.36;101387.03;5035375;28;20219;-72
2023/05/17 03:29:29;;;;;;;4.87;2.20;;;;;;;4.60;85.19;101378.38;5028319;28;20235;-73
2023/05/17 03:31:55;;;;;;;9.70;2.10;;;;;;;4.61;85.20;101372.09;5001128;28;20204;-73
2023/05/17 03:34:22;;;;;;;7.87;2.73;;;;;;;4.64;84.96;101368.16;5000521;28;20212;-73
2023/05/17 03:36:48;;;;;;;9.53;2.47;;;;;;;4.69;84.99;101374.19;5019606;28;20216;-72
2023/05/17 03:39:15;;;;;;;4.80;2.00;;;;;;;4.72;85.44;101376.25;5000582;28;20338;-74
2023/05/17 03:41:43;;;;;;;5.87;2.30;;;;;;;4.80;85.80;101388.00;5004813;28;20581;-74
2023/05/17 03:44:11;;;;;;;4.83;2.43;;;;;;;4.83;85.67;101385.63;5031103;28;20211;-75
2023/05/17 03:46:38;;;;;;;7.83;2.30;;;;;;;4.90;85.49;101395.81;5004784;28;20234;-75
2023/05/17 03:49:04;;;;;;;4.43;2.07;;;;;;;4.95;85.58;101393.97;5000004;28;20321;-74
2023/05/17 03:51:33;;;;;;;6.73;2.63;;;;;;;5.02;85.48;101398.91;5018155;28;20211;-73
2023/05/17 03:54:01;;;;;;;8.50;2.70;;;;;;;5.06;85.06;101403.34;5032283;28;20608;-74
2023/05/17 03:56:30;;;;;;;10.57;2.80;;;;;;;5.15;84.61;101411.41;5018383;28;20711;-72
2023/05/17 03:58:56;;;;;;;4.57;2.67;;;;;;;5.23;84.58;101409.00;5032067;28;20208;-72
2023/05/17 04:01:25;;;;;;;5.87;2.60;;;;;;;5.33;84.76;101406.34;5015724;28;20207;-72
2023/05/17 04:03:51;;;;;;;5.83;2.43;;;;;;;5.41;84.71;101420.69;5007673;28;20221;-72
2023/05/17 04:06:20;;;;;;;3.83;2.43;;;;;;;5.49;84.67;101420.91;4995304;28;20247;-72
2023/05/17 04:08:46;;;;;;;4.00;2.30;;;;;;;5.58;84.04;101408.81;5034279;28;20273;-71
2023/05/17 04:11:13;;;;;;;7.63;2.43;;;;;;;5.68;83.84;101418.44;5014009;28;20460;-75
2023/05/17 04:13:41;;;;;;;5.10;2.43;;;;;;;5.74;83.65;101417.34;5009280;28;20953;-72
2023/05/17 04:16:08;;;;;;;3.63;2.37;;;;;;;5.81;83.49;101425.72;5008146;28;20226;-72
2023/05/17 04:18:38;;;;;;;4.30;2.23;;;;;;;5.84;82.68;101414.69;5005504;28;20262;-71
2023/05/17 04:21:05;;;;;;;7.37;2.20;;;;;;;5.89;82.55;101415.44;5007397;28;20232;-69
2023/05/17 04:23:33;;;;;;;3.20;2.20;;;;;;;5.91;81.89;101409.94;5012799;28;20212;-69
2023/05/17 04:26:02;;;;;;;4.80;2.10;;;;;;;5.95;82.49;101410.94;5002952;28;20318;-69
2023/05/17 04:28:30;;;;;;;6.07;2.40;;;;;;;5.98;82.23;101411.19;5011094;28;20203;-70
2023/05/17 04:30:57;;;;;;;5.33;2.00;;;;;;;6.01;82.25;101413.25;5004532;28;20661;-70
2023/05/17 04:33:23;;;;;;;5.47;2.33;;;;;;;6.03;82.83;101416.38;5011540;28;20216;-69
2023/05/17 04:35:55;;;;;;;5.23;2.00;;;;;;;6.06;82.26;101412.44;5010967;28;20227;-69
2023/05/17 04:38:23;;;;;;;5.67;2.37;;;;;;;6.07;82.04;101406.88;5006410;28;20223;-70
2023/05/17 04:40:51;;;;;;;5.77;2.50;;;;;;;6.12;82.58;101409.47;4997502;28;20204;-70
2023/05/17 04:43:17;;;;;;;6.33;2.30;;;;;;;6.11;82.84;101417.63;5024964;28;20580;-70
2023/05/17 04:45:44;;;;;;;6.73;2.23;;;;;;;6.13;82.94;101421.56;5013670;28;20225;-70
2023/05/17 04:48:11;;;;;;;5.43;2.20;;;;;;;6.14;82.21;101415.25;5031395;28;20350;-70
2023/05/17 04:50:37;;;;;;;4.80;2.30;;;;;;;6.16;82.43;101420.97;5015058;28;20369;-69
2023/05/17 04:53:05;;;;;;;6.73;2.57;;;;;;;6.18;82.18;101416.25;5008156;23;21207;-70
2023/05/17 04:55:34;;;;;;;5.03;2.40;;;;;;;6.22;82.80;101413.88;4984816;28;20212;-68
2023/05/17 04:58:01;;;;;;;5.87;2.63;;;;;;;6.28;82.70;101421.41;5024058;28;20227;-68
2023/05/17 05:00:27;;;;;;;6.97;2.90;;;;;;;6.34;82.80;101422.13;5019024;28;20200;-68
2023/05/17 05:03:03;;;;;;;4.73;2.77;;;;;;;6.46;82.67;101425.16;4999284;28;20300;-69
2023/05/17 05:05:30;;;;;;;7.87;3.13;;;;;;;6.58;83.02;101428.97;5014949;28;20570;-69
2023/05/17 05:07:56;;;;;;;8.93;3.20;;;;;;;6.73;82.73;101447.19;5016175;28;20303;-69
2023/05/17 05:10:27;;;;;;;9.97;3.30;;;;;;;6.91;82.60;101448.31;5036135;28;20708;-70
2023/05/17 05:12:53;;;;;;;7.43;3.30;;;;;;;7.13;82.08;101449.38;5015074;28;20219;-68
2023/05/17 05:15:20;;;;;;;10.13;3.10;;;;;;;7.31;79.20;101445.22;5036741;28;20280;-69
2023/05/17 05:17:53;;;;;;;9.77;3.60;;;;;;;7.50;79.23;101438.91;5020224;28;20202;-69
2023/05/17 05:20:20;;;;;;;7.80;3.40;;;;;;;7.68;77.67;101424.19;5019859;28;20248;-69
2023/05/17 05:22:46;;;;;;;7.43;3.00;;;;;;;7.83;78.58;101418.72;5018925;28;20243;-68
2023/05/17 05:25:14;;;;;;;7.87;3.10;;;;;;;8.04;76.91;101423.38;5015532;28;20202;-67
2023/05/17 05:27:41;;;;;;;9.50;3.20;;;;;;;8.21;76.88;101428.91;5019634;28;20231;-69
2023/05/17 05:30:09;;;;;;;9.43;3.27;;;;;;;8.30;76.40;101432.44;5035479;28;20230;-67
2023/05/17 05:32:37;;;;;;;7.27;2.57;;;;;;;8.43;75.53;101436.19;5018767;28;20234;-70
2023/05/17 05:35:04;;;;;;;4.53;3.27;;;;;;;8.52;74.77;101426.53;5037750;28;20737;-68
2023/05/17 05:37:31;;;;;;;6.90;3.20;;;;;;;8.64;74.65;101432.88;5020054;28;20222;-68
2023/05/17 05:39:57;;;;;;;8.77;3.40;;;;;;;8.73;74.60;101439.03;5019244;28;20609;-68
2023/05/17 05:42:24;;;;;;;7.63;2.63;;;;;;;8.85;74.11;101441.97;5017810;28;20301;-68
2023/05/17 05:44:51;;;;;;;9.33;3.33;;;;;;;8.99;72.94;101453.28;5018204;28;20208;-68
2023/05/17 05:47:19;;;;;;;8.50;3.30;;;;;;;9.10;72.18;101449.38;5019664;28;20212;-68
2023/05/17 05:49:45;;;;;;;8.63;3.13;;;;;;;9.23;71.83;101453.06;5019359;28;20339;-68
2023/05/17 05:52:11;;;;;;;9.80;3.57;;;;;;;9.39;71.54;101449.03;5035851;28;20729;-68
2023/05/17 05:54:38;;;;;;;6.30;2.87;;;;;;;9.52;70.84;101451.63;5016361;28;20195;-69
2023/05/17 05:57:04;;;;;;;8.40;3.40;;;;;;;9.67;71.22;101456.59;5039203;28;20273;-68
2023/05/17 05:59:30;;;;;;;7.37;3.07;;;;;;;9.84;71.43;101466.50;5022807;28;20212;-67
2023/05/17 06:01:59;;;;;;;9.57;3.27;;;;;;;10.02;71.01;101455.78;5021219;28;20722;-70
2023/05/17 06:04:25;;;;;;;12.17;3.37;;;;;;;10.19;70.03;101455.91;5041615;28;20236;-68
2023/05/17 06:06:54;;;;;;;7.53;3.00;;;;;;;10.37;69.92;101470.00;5041229;28;20203;-68
2023/05/17 06:09:20;;;;;;;5.77;2.90;;;;;;;10.53;67.68;101476.47;5040107;28;20576;-68
2023/05/17 06:11:47;;;;;;;7.10;3.10;;;;;;;10.60;67.52;101472.31;5044187;28;20214;-68
2023/05/17 06:14:14;;;;;;;8.67;3.00;;;;;;;10.73;68.31;101483.88;5043501;28;20203;-68
2023/05/17 06:16:40;;;;;;;6.70;2.67;;;;;;;10.88;67.81;101494.03;5041936;28;20232;-67
2023/05/17 06:19:08;;;;;;;6.97;3.20;;;;;;;11.04;67.77;101492.53;5039769;28;20207;-68
2023/05/17 06:21:34;;;;;;;8.43;3.03;;;;;;;11.12;66.58;101500.50;5039881;28;20215;-69
2023/05/17 06:24:01;;;;;;;5.67;2.83;;;;;;;11.19;66.66;101500.06;5044608;28;20226;-68
2023/05/17 06:26:27;;;;;;;7.10;2.90;;;;;;;11.26;65.64;101495.88;5041656;28;20199;-68
2023/05/17 06:28:53;;;;;;;6.63;3.40;;;;;;;11.34;66.03;101499.63;5041502;28;20212;-68
2023/05/17 06:31:20;;;;;;;7.80;2.97;;;;;;;11.46;65.78;101503.25;5039432;28;20228;-68
2023/05/17 06:33:46;;;;;;;8.23;3.80;;;;;;;11.53;64.95;101505.41;5044422;28;20283;-68
2023/05/17 06:36:14;;;;;;;12.77;2.97;;;;;;;11.54;65.06;101504.34;5044570;28;20248;-68
2023/05/17 06:38:40;;;;;;;8.33;3.00;;;;;;;11.59;63.27;101512.91;5042025;28;20224;-69
2023/05/17 06:41:06;;;;;;;6.63;2.43;;;;;;;11.64;63.98;101510.13;5039832;28;20203;-69
2023/05/17 06:43:32;;;;;;;5.70;2.77;;;;;;;11.63;63.99;101513.88;5041592;28;20239;-69
2023/05/17 06:45:59;;;;;;;11.63;2.87;;;;;;;11.66;62.67;101510.63;5040656;28;20209;-69
2023/05/17 06:48:25;;;;;;;7.23;3.03;;;;;;;11.66;61.94;101515.91;5040884;28;20206;-69
2023/05/17 06:50:52;;;;;;;4.50;2.53;;;;;;;11.65;62.58;101511.69;5041183;28;20215;-69
2023/05/17 06:53:20;;;;;;;6.90;2.67;;;;;;;11.69;62.74;101522.44;5040082;28;20227;-69
2023/05/17 06:55:46;;;;;;;7.67;2.90;;;;;;;11.67;61.52;101521.97;5039892;28;20209;-69
2023/05/17 06:58:12;;;;;;;9.43;2.93;;;;;;;11.69;61.45;101533.03;5039220;28;20213;-69
2023/05/17 07:00:39;;;;;;;8.07;3.03;;;;;;;11.72;61.67;101540.34;5038423;28;20194;-69
2023/05/17 07:03:05;;;;;;;8.70;3.23;;;;;;;11.71;61.49;101544.88;5042225;28;20316;-69
2023/05/17 07:05:31;;;;;;;7.10;3.00;;;;;;;11.67;60.69;101535.19;5039544;28;20675;-69
2023/05/17 07:07:58;;;;;;;9.73;3.47;;;;;;;11.63;60.81;101548.25;5038226;28;20205;-69
2023/05/17 07:10:26;;;;;;;8.07;3.00;;;;;;;11.65;61.15;101561.94;5035134;28;20217;-69
2023/05/17 07:12:52;;;;;;;9.37;2.97;;;;;;;11.70;60.97;101555.75;5039577;28;20226;-69
2023/05/17 07:15:19;;;;;;;6.87;3.67;;;;;;;11.68;61.17;101550.75;5042203;28;20209;-69
2023/05/17 07:17:45;;;;;;;8.60;3.17;;;;;;;11.72;61.07;101550.91;5041307;28;20212;-69
2023/05/17 07:20:13;;;;;;;12.57;3.10;;;;;;;11.75;60.06;101539.72;5038232;28;20216;-69
2023/05/17 07:22:40;;;;;;;7.63;3.03;;;;;;;11.77;60.07;101548.13;5038871;28;20271;-69
2023/05/17 07:25:08;;;;;;;5.50;2.63;;;;;;;11.77;58.59;101543.63;5041128;28;20567;-69
2023/05/17 07:27:35;;;;;;;6.13;2.90;;;;;;;11.81;60.60;101549.06;5036347;28;20207;-67
2023/05/17 07:30:02;;;;;;;5.53;3.10;;;;;;;11.81;59.91;101549.84;5034287;28;20227;-68
2023/05/17 07:32:29;;;;;;;6.20;2.60;;;;;;;11.89;60.21;101550.94;5037009;28;20818;-69
2023/05/17 07:34:55;;;;;;;9.57;2.60;;;;;;;11.97;59.44;101555.47;5036072;28;20211;-69
2023/05/17 07:37:21;;;;;;;7.13;2.50;;;;;;;12.06;59.78;101558.91;5035706;28;20201;-69
2023/05/17 07:39:48;;;;;;;8.37;3.00;;;;;;;12.03;58.49;101567.47;5034133;28;20616;-69
2023/05/17 07:42:14;;;;;;;4.63;2.40;;;;;;;12.12;57.51;101573.53;5041716;28;20228;-68
2023/05/17 07:44:42;;;;;;;6.53;2.33;;;;;;;12.17;56.38;101568.84;5038091;28;20593;-68
2023/05/17 07:47:08;;;;;;;6.23;3.00;;;;;;;12.23;57.05;101570.28;5038184;28;20221;-68
2023/05/17 07:49:34;;;;;;;6.90;2.17;;;;;;;12.30;56.71;101570.59;5040988;28;20212;-68
2023/05/17 07:52:01;;;;;;;13.83;2.77;;;;;;;12.38;56.07;101566.38;5037436;28;20494;-68
2023/05/17 07:54:27;;;;;;;8.90;2.47;;;;;;;12.46;56.95;101576.97;5036324;28;20204;-68
2023/05/17 07:56:54;;;;;;;7.43;2.83;;;;;;;12.55;57.78;101574.28;5036199;28;20604;-68
2023/05/17 07:59:21;;;;;;;7.53;3.00;;;;;;;12.66;57.00;101572.88;5035737;28;20287;-71
2023/05/17 08:01:49;;;;;;;7.00;2.10;;;;;;;12.61;54.47;101575.69;5038507;28;20690;-68
2023/05/17 08:04:15;;;;;;;8.37;2.83;;;;;;;12.69;53.75;101580.19;5039127;28;20676;-69
2023/05/17 08:06:44;;;;;;;9.20;2.40;;;;;;;12.77;54.18;101569.56;5039458;28;20559;-69
2023/05/17 08:09:10;;;;;;;6.50;2.17;;;;;;;12.90;55.08;101565.97;5038770;28;20309;-69
2023/05/17 08:11:40;;;;;;;5.17;2.07;;;;;;;13.06;54.51;101563.59;5037469;28;20246;-68
2023/05/17 08:14:06;;;;;;;7.10;2.50;;;;;;;13.18;52.52;101564.47;5040396;28;20213;-69
2023/05/17 08:16:33;;;;;;;8.47;2.20;;;;;;;13.31;54.01;101575.97;5036430;28;20202;-68
2023/05/17 08:19:00;;;;;;;3.43;1.80;;;;;;;13.31;52.42;101576.75;5038423;28;20209;-69
2023/05/17 08:21:27;;;;;;;8.47;2.20;;;;;;;13.32;52.58;101580.97;5040936;28;20214;-69
2023/05/17 08:23:53;;;;;;;8.07;2.37;;;;;;;13.35;54.23;101575.00;5038443;28;20225;-69
2023/05/17 08:26:19;;;;;;;8.30;2.40;;;;;;;13.38;52.34;101581.56;5039767;28;20678;-68
2023/05/17 08:28:45;;;;;;;5.13;1.93;;;;;;;13.45;51.37;101581.84;5038063;28;20210;-68
2023/05/17 08:31:12;;;;;;;5.37;1.80;;;;;;;13.56;50.38;101573.19;5035781;28;20224;-69
2023/05/17 08:33:38;;;;;;;7.00;2.20;;;;;;;13.66;49.00;101577.38;5040760;28;20330;-68
2023/05/17 08:36:07;;;;;;;4.43;1.70;;;;;;;13.68;50.72;101573.28;5035591;28;20207;-68
2023/05/17 08:38:34;;;;;;;5.13;1.73;;;;;;;13.66;49.64;101572.81;5036488;28;20207;-69
2023/05/17 08:41:01;;;;;;;5.53;1.97;;;;;;;13.73;48.98;101577.63;5035116;28;20856;-70
2023/05/17 08:43:29;;;;;;;4.70;1.90;;;;;;;13.79;50.17;101582.44;5021526;28;20226;-70
2023/05/17 08:45:57;;;;;;;3.90;1.93;;;;;;;13.81;50.52;101574.91;5036901;28;20187;-70
2023/05/17 08:48:25;;;;;;;4.23;1.60;;;;;;;13.79;48.88;101566.50;5037075;28;20209;-69
2023/05/17 08:50:54;;;;;;;7.27;2.03;;;;;;;13.71;49.09;101569.97;5036124;28;20223;-70
2023/05/17 08:53:22;;;;;;;4.93;1.77;;;;;;;13.73;47.86;101565.13;5034148;28;20231;-70
2023/05/17 08:55:51;;;;;;;5.50;1.80;;;;;;;13.76;48.45;101564.47;5036315;28;20204;-70
2023/05/17 08:58:21;;;;;;;5.43;1.90;;;;;;;13.75;48.50;101557.63;5034870;28;20222;-70
2023/05/17 09:00:50;;;;;;;5.43;1.90;;;;;;;13.82;49.35;101546.50;5033219;28;20211;-68
2023/05/17 09:03:18;;;;;;;4.63;1.87;;;;;;;13.89;48.65;101546.75;5034982;28;20661;-69
2023/05/17 09:05:45;;;;;;;6.67;1.97;;;;;;;13.92;47.33;101549.53;5033858;28;20211;-68
2023/05/17 09:08:12;;;;;;;8.33;1.80;;;;;;;13.91;47.04;101555.16;5038405;28;20677;-68
2023/05/17 09:10:40;;;;;;;4.10;1.73;;;;;;;13.79;47.96;101561.19;5035873;28;20223;-69
2023/05/17 09:13:06;;;;;;;6.70;1.93;;;;;;;13.75;49.26;101556.84;5035427;28;20242;-69
2023/05/17 09:15:33;;;;;;;5.50;2.20;;;;;;;13.84;51.11;101565.53;5038230;28;20210;-68
2023/05/17 09:18:00;;;;;;;4.77;1.80;;;;;;;13.84;50.23;101554.91;5037599;28;20229;-69
2023/05/17 09:20:32;;;;;;;7.00;1.93;;;;;;;13.83;48.92;101559.44;5039318;28;20747;-69
2023/05/17 09:22:59;;;;;;;6.07;2.00;;;;;;;13.78;47.41;101566.81;5036913;28;20229;-69
2023/05/17 09:25:26;;;;;;;4.73;1.70;;;;;;;13.82;47.31;101565.84;5035724;28;20513;-69
2023/05/17 09:27:55;;;;;;;7.27;2.90;;;;;;;13.85;47.83;101564.41;5037544;28;20688;-68
2023/05/17 09:30:27;;;;;;;5.40;2.00;;;;;;;13.85;46.72;101551.94;5034799;28;20248;-69
2023/05/17 09:32:54;;;;;;;6.37;1.87;;;;;;;13.91;48.14;101555.94;5037232;28;20588;-70
2023/05/17 09:35:27;;;;;;;5.90;1.80;;;;;;;14.01;47.87;101557.41;5038517;28;20240;-68
2023/05/17 09:37:53;;;;;;;2.93;1.40;;;;;;;14.11;48.26;101559.69;5041972;28;20203;-70
2023/05/17 09:40:24;;;;;;;5.63;2.00;;;;;;;14.11;46.91;101549.84;5042189;28;20203;-69
2023/05/17 09:42:50;;;;;;;5.33;1.50;;;;;;;14.06;47.30;101563.34;5044046;28;20600;-69
2023/05/17 09:45:23;;;;;;;9.23;1.73;;;;;;;14.03;47.98;101569.28;5043997;28;20202;-69
2023/05/17 09:47:51;;;;;;;5.03;1.90;;;;;;;14.09;47.49;101570.66;5043471;28;20199;-69
2023/05/17 09:50:18;;;;;;;6.70;1.87;;;;;;;14.12;45.72;101558.63;5041333;28;20864;-69
2023/05/17 09:52:45;;;;;;;6.63;1.60;;;;;;;14.21;45.64;101565.44;5039166;28;20293;-68
2023/05/17 09:55:12;;;;;;;4.43;1.60;;;;;;;14.29;46.80;101564.56;5041133;28;20291;-69
2023/05/17 09:57:40;;;;;;;6.47;1.90;;;;;;;14.36;46.06;101569.34;5043704;28;20200;-69
2023/05/17 10:00:10;;;;;;;6.60;1.60;;;;;;;14.37;41.34;101582.31;5038945;28;20761;-68
2023/05/17 10:02:39;;;;;;;2.83;1.40;;;;;;;14.39;42.75;101584.66;5043655;28;20227;-70
2023/05/17 10:05:10;;;;;;;9.57;2.00;;;;;;;14.42;44.27;101581.34;5044208;28;21165;-68
2023/05/17 10:07:37;;;;;;;2.70;1.43;;;;;;;14.41;42.36;101574.47;5042408;28;20508;-68
2023/05/17 10:10:05;;;;;;;4.00;1.47;;;;;;;14.47;43.28;101573.16;5043121;28;20202;-71
2023/05/17 10:12:34;;;;;;;3.20;1.50;;;;;;;14.48;41.69;101577.38;5042484;28;20768;-69
2023/05/17 10:15:01;;;;;;;5.73;2.10;;;;;;;14.49;41.59;101578.94;5039118;28;20220;-68
2023/05/17 10:17:28;;;;;;;3.30;1.30;;;;;;;14.56;42.66;101587.94;5039041;28;20200;-69
2023/05/17 10:19:56;;;;;;;3.90;1.30;;;;;;;14.56;40.29;101587.94;5040675;28;20302;-68
2023/05/17 10:22:23;;;;;;;8.33;1.50;;;;;;;14.56;40.42;101582.63;5042159;28;20231;-67
2023/05/17 10:24:51;;;;;;;6.50;1.37;;;;;;;14.57;39.94;101570.88;5042844;28;20215;-68
2023/05/17 10:27:17;;;;;;;5.10;1.57;;;;;;;14.68;40.86;101573.88;5041030;28;20697;-68
2023/05/17 10:29:44;;;;;;;4.30;1.57;;;;;;;14.74;41.99;101584.00;5042308;28;20212;-68
2023/05/17 10:32:15;;;;;;;4.47;1.30;;;;;;;14.74;41.21;101578.69;5039688;28;20698;-68
2023/05/17 10:34:42;;;;;;;4.10;1.30;;;;;;;14.80;41.59;101588.00;5036394;28;20206;-68
2023/05/17 10:37:11;;;;;;;5.40;1.53;;;;;;;14.91;43.04;101585.72;5035324;28;20206;-69
2023/05/17 10:39:38;;;;;;;5.20;1.30;;;;;;;14.99;43.46;101585.63;5038382;28;20200;-69
2023/05/17 10:42:08;;;;;;;3.03;1.40;;;;;;;15.12;43.39;101589.06;5045207;28;20305;-68
2023/05/17 10:44:36;;;;;;;8.43;1.70;;;;;;;15.25;41.91;101586.09;5039559;28;20210;-69
2023/05/17 10:47:04;;;;;;;5.93;1.47;;;;;;;15.31;41.11;101582.09;5039632;28;20211;-69
2023/05/17 10:49:32;;;;;;;4.97;1.40;;;;;;;15.43;41.16;101587.44;5037844;28;20209;-69
2023/05/17 10:51:59;;;;;;;5.53;1.50;;;;;;;15.54;42.12;101577.91;5025458;28;20240;-69
2023/05/17 10:54:39;;;;;;;4.77;1.70;;;;;;;15.62;43.47;101587.66;5038881;23;20232;-76
2023/05/17 10:57:07;;;;;;;5.07;1.63;;;;;;;15.69;40.96;101582.53;5008929;28;20200;-74
2023/05/17 10:59:34;;;;;;;5.60;1.40;;;;;;;15.76;40.35;101577.44;5025743;28;20222;-76
2023/05/17 11:02:03;;;;;;;4.17;1.50;;;;;;;15.85;40.17;101582.63;5023827;28;20198;-74
2023/05/17 11:04:35;;;;;;;3.93;1.50;;;;;;;15.90;40.11;101575.19;5023032;28;20211;-76
2023/05/17 11:07:23;;;;;;;5.17;1.50;;;;;;;15.79;38.11;101587.41;5027272;28;20207;-76
2023/05/17 11:09:54;;;;;;;6.50;1.30;;;;;;;15.71;37.92;101580.34;5029741;28;20228;-77
2023/05/17 11:12:29;;;;;;;3.17;1.17;;;;;;;15.75;38.98;101580.44;5012383;28;20639;-75
2023/05/17 11:14:56;;;;;;;4.13;1.67;;;;;;;15.71;37.96;101569.69;5031469;28;20195;-77
2023/05/17 11:17:27;;;;;;;2.90;1.20;;;;;;;15.73;38.38;101566.69;5030752;28;20199;-76
2023/05/17 11:20:01;;;;;;;4.77;1.53;;;;;;;15.77;39.07;101556.91;5028432;28;20268;-76
2023/05/17 11:22:33;;;;;;;2.33;1.30;;;;;;;15.83;38.87;101563.56;5025896;28;20210;-77
2023/05/17 11:25:05;;;;;;;5.13;1.20;;;;;;;15.87;39.34;101567.88;5008869;28;20220;-77
2023/05/17 11:27:36;;;;;;;5.13;1.10;;;;;;;15.95;39.09;101566.19;5011090;28;20262;-75
2023/05/17 11:30:09;;;;;;;4.57;1.40;;;;;;;15.93;36.00;101571.09;5025770;28;20231;-75
2023/05/17 11:32:35;;;;;;;4.20;1.37;;;;;;;15.87;37.45;101561.75;5025724;28;20270;-77